sensor_id;sensor_type;location;lat;lon;timestamp;P1;durP1;ratioP1;P2;durP2;ratioP2
68700;SDS011;55682;51.114;5.882;2023-02-18T00:00:24;9.23;;;9.08;;
68700;SDS011;55682;51.114;5.882;2023-02-18T00:02:51;8.33;;;8.20;;
68700;SDS011;55682;51.114;5.882;2023-02-18T00:05:17;8.40;;;8.23;;
68700;SDS011;55682;51.114;5.882;2023-02-18T00:07:43;8.52;;;8.36;;
68700;SDS011;55682;51.114;5.882;2023-02-18T00:10:13;8.59;;;8.43;;
68700;SDS011;55682;51.114;5.882;2023-02-18T00:12:39;9.29;;;9.07;;
68700;SDS011;55682;51.114;5.882;2023-02-18T00:15:05;8.14;;;8.06;;
68700;SDS011;55682;51.114;5.882;2023-02-18T00:17:32;7.78;;;7.63;;
68700;SDS011;55682;51.114;5.882;2023-02-18T00:19:58;7.67;;;7.65;;
68700;SDS011;55682;51.114;5.882;2023-02-18T00:22:23;8.06;;;8.04;;
68700;SDS011;55682;51.114;5.882;2023-02-18T00:24:49;7.63;;;7.54;;
68700;SDS011;55682;51.114;5.882;2023-02-18T00:27:16;8.00;;;7.81;;
68700;SDS011;55682;51.114;5.882;2023-02-18T00:29:42;7.71;;;7.51;;
68700;SDS011;55682;51.114;5.882;2023-02-18T00:32:07;7.81;;;7.65;;
68700;SDS011;55682;51.114;5.882;2023-02-18T00:34:34;8.03;;;7.93;;
68700;SDS011;55682;51.114;5.882;2023-02-18T00:37:02;8.00;;;7.92;;
68700;SDS011;55682;51.114;5.882;2023-02-18T00:39:28;7.64;;;7.52;;
68700;SDS011;55682;51.114;5.882;2023-02-18T00:41:54;7.98;;;7.86;;
68700;SDS011;55682;51.114;5.882;2023-02-18T00:44:19;8.67;;;8.41;;
68700;SDS011;55682;51.114;5.882;2023-02-18T00:46:45;7.84;;;7.76;;
68700;SDS011;55682;51.114;5.882;2023-02-18T00:49:12;8.21;;;7.96;;
68700;SDS011;55682;51.114;5.882;2023-02-18T00:51:38;7.93;;;7.68;;
68700;SDS011;55682;51.114;5.882;2023-02-18T00:54:04;7.72;;;7.54;;
68700;SDS011;55682;51.114;5.882;2023-02-18T00:56:30;7.76;;;7.55;;
68700;SDS011;55682;51.114;5.882;2023-02-18T00:58:55;7.43;;;7.29;;
68700;SDS011;55682;51.114;5.882;2023-02-18T01:01:21;7.42;;;7.27;;
68700;SDS011;55682;51.114;5.882;2023-02-18T01:03:47;7.51;;;7.39;;
68700;SDS011;55682;51.114;5.882;2023-02-18T01:06:13;7.60;;;7.46;;
68700;SDS011;55682;51.114;5.882;2023-02-18T01:08:39;7.55;;;7.42;;
68700;SDS011;55682;51.114;5.882;2023-02-18T01:11:05;7.75;;;7.57;;
68700;SDS011;55682;51.114;5.882;2023-02-18T01:13:34;7.68;;;7.53;;
68700;SDS011;55682;51.114;5.882;2023-02-18T01:16:00;7.72;;;7.57;;
68700;SDS011;55682;51.114;5.882;2023-02-18T01:18:28;7.89;;;7.72;;
68700;SDS011;55682;51.114;5.882;2023-02-18T01:20:55;7.88;;;7.75;;
68700;SDS011;55682;51.114;5.882;2023-02-18T01:23:21;7.88;;;7.81;;
68700;SDS011;55682;51.114;5.882;2023-02-18T01:25:47;8.01;;;7.91;;
68700;SDS011;55682;51.114;5.882;2023-02-18T01:28:13;8.19;;;8.03;;
68700;SDS011;55682;51.114;5.882;2023-02-18T01:30:39;7.97;;;7.85;;
68700;SDS011;55682;51.114;5.882;2023-02-18T01:33:05;7.87;;;7.75;;
68700;SDS011;55682;51.114;5.882;2023-02-18T01:35:31;8.33;;;8.13;;
68700;SDS011;55682;51.114;5.882;2023-02-18T01:37:57;9.06;;;8.75;;
68700;SDS011;55682;51.114;5.882;2023-02-18T01:40:24;9.08;;;8.75;;
68700;SDS011;55682;51.114;5.882;2023-02-18T01:42:52;8.97;;;8.59;;
68700;SDS011;55682;51.114;5.882;2023-02-18T01:48:00;8.94;;;8.54;;
68700;SDS011;55682;51.114;5.882;2023-02-18T01:50:38;9.03;;;8.73;;
68700;SDS011;55682;51.114;5.882;2023-02-18T01:53:09;10.79;;;10.16;;
68700;SDS011;55682;51.114;5.882;2023-02-18T01:55:39;10.01;;;9.47;;
68700;SDS011;55682;51.114;5.882;2023-02-18T01:58:04;10.12;;;9.50;;
68700;SDS011;55682;51.114;5.882;2023-02-18T02:00:31;9.65;;;9.21;;
68700;SDS011;55682;51.114;5.882;2023-02-18T02:02:57;10.00;;;9.44;;
68700;SDS011;55682;51.114;5.882;2023-02-18T02:05:23;9.55;;;9.06;;
68700;SDS011;55682;51.114;5.882;2023-02-18T02:07:52;10.66;;;10.04;;
68700;SDS011;55682;51.114;5.882;2023-02-18T02:10:19;9.13;;;8.68;;
68700;SDS011;55682;51.114;5.882;2023-02-18T02:15:48;9.33;;;8.90;;
68700;SDS011;55682;51.114;5.882;2023-02-18T02:19:05;9.55;;;8.94;;
68700;SDS011;55682;51.114;5.882;2023-02-18T02:30:17;8.94;;;8.41;;
68700;SDS011;55682;51.114;5.882;2023-02-18T02:33:43;9.69;;;9.02;;
68700;SDS011;55682;51.114;5.882;2023-02-18T02:38:52;10.09;;;8.93;;
68700;SDS011;55682;51.114;5.882;2023-02-18T02:46:46;8.23;;;7.57;;
68700;SDS011;55682;51.114;5.882;2023-02-18T02:52:07;8.08;;;7.12;;
68700;SDS011;55682;51.114;5.882;2023-02-18T02:54:39;7.87;;;7.02;;
68700;SDS011;55682;51.114;5.882;2023-02-18T02:57:07;7.11;;;6.38;;
68700;SDS011;55682;51.114;5.882;2023-02-18T02:59:43;6.18;;;5.53;;
68700;SDS011;55682;51.114;5.882;2023-02-18T03:11:09;4.37;;;3.91;;
68700;SDS011;55682;51.114;5.882;2023-02-18T03:13:13;3.80;;;3.53;;
68700;SDS011;55682;51.114;5.882;2023-02-18T03:15:55;3.37;;;3.13;;
68700;SDS011;55682;51.114;5.882;2023-02-18T03:18:39;3.25;;;2.93;;
68700;SDS011;55682;51.114;5.882;2023-02-18T03:21:11;3.12;;;2.80;;
68700;SDS011;55682;51.114;5.882;2023-02-18T03:23:45;2.89;;;2.62;;
68700;SDS011;55682;51.114;5.882;2023-02-18T03:26:17;2.54;;;2.32;;
68700;SDS011;55682;51.114;5.882;2023-02-18T03:28:46;1.84;;;1.71;;
68700;SDS011;55682;51.114;5.882;2023-02-18T03:31:17;1.77;;;1.67;;
68700;SDS011;55682;51.114;5.882;2023-02-18T03:33:58;1.70;;;1.60;;
68700;SDS011;55682;51.114;5.882;2023-02-18T03:36:29;1.79;;;1.68;;
68700;SDS011;55682;51.114;5.882;2023-02-18T03:38:59;1.57;;;1.48;;
68700;SDS011;55682;51.114;5.882;2023-02-18T03:41:29;1.59;;;1.51;;
68700;SDS011;55682;51.114;5.882;2023-02-18T03:44:00;1.51;;;1.46;;
68700;SDS011;55682;51.114;5.882;2023-02-18T03:46:28;1.51;;;1.47;;
68700;SDS011;55682;51.114;5.882;2023-02-18T03:48:54;1.42;;;1.38;;
68700;SDS011;55682;51.114;5.882;2023-02-18T03:51:20;1.52;;;1.48;;
68700;SDS011;55682;51.114;5.882;2023-02-18T03:53:46;1.40;;;1.38;;
68700;SDS011;55682;51.114;5.882;2023-02-18T03:56:12;1.34;;;1.30;;
68700;SDS011;55682;51.114;5.882;2023-02-18T03:58:38;1.30;;;1.27;;
68700;SDS011;55682;51.114;5.882;2023-02-18T04:01:04;1.24;;;1.22;;
68700;SDS011;55682;51.114;5.882;2023-02-18T04:03:30;1.40;;;1.38;;
68700;SDS011;55682;51.114;5.882;2023-02-18T04:05:56;1.48;;;1.48;;
68700;SDS011;55682;51.114;5.882;2023-02-18T04:08:22;1.42;;;1.42;;
68700;SDS011;55682;51.114;5.882;2023-02-18T04:10:48;1.31;;;1.31;;
68700;SDS011;55682;51.114;5.882;2023-02-18T04:13:14;1.29;;;1.28;;
68700;SDS011;55682;51.114;5.882;2023-02-18T04:15:42;1.31;;;1.30;;
68700;SDS011;55682;51.114;5.882;2023-02-18T04:18:09;1.32;;;1.31;;
68700;SDS011;55682;51.114;5.882;2023-02-18T04:20:35;1.36;;;1.35;;
68700;SDS011;55682;51.114;5.882;2023-02-18T04:23:02;1.38;;;1.37;;
68700;SDS011;55682;51.114;5.882;2023-02-18T04:25:28;1.28;;;1.27;;
68700;SDS011;55682;51.114;5.882;2023-02-18T04:27:54;1.31;;;1.30;;
68700;SDS011;55682;51.114;5.882;2023-02-18T04:30:19;1.25;;;1.24;;
68700;SDS011;55682;51.114;5.882;2023-02-18T04:32:45;1.21;;;1.19;;
68700;SDS011;55682;51.114;5.882;2023-02-18T04:35:11;1.35;;;1.34;;
68700;SDS011;55682;51.114;5.882;2023-02-18T04:37:37;1.32;;;1.30;;
68700;SDS011;55682;51.114;5.882;2023-02-18T04:40:02;1.38;;;1.37;;
68700;SDS011;55682;51.114;5.882;2023-02-18T04:42:28;1.45;;;1.43;;
68700;SDS011;55682;51.114;5.882;2023-02-18T04:44:54;1.45;;;1.43;;
68700;SDS011;55682;51.114;5.882;2023-02-18T04:47:19;1.55;;;1.54;;
68700;SDS011;55682;51.114;5.882;2023-02-18T04:49:45;1.46;;;1.44;;
68700;SDS011;55682;51.114;5.882;2023-02-18T04:52:11;1.56;;;1.54;;
68700;SDS011;55682;51.114;5.882;2023-02-18T04:54:36;1.76;;;1.74;;
68700;SDS011;55682;51.114;5.882;2023-02-18T04:57:02;1.43;;;1.42;;
68700;SDS011;55682;51.114;5.882;2023-02-18T04:59:28;1.36;;;1.36;;
68700;SDS011;55682;51.114;5.882;2023-02-18T05:01:55;1.50;;;1.50;;
68700;SDS011;55682;51.114;5.882;2023-02-18T05:04:21;1.46;;;1.44;;
68700;SDS011;55682;51.114;5.882;2023-02-18T05:06:47;1.57;;;1.56;;
68700;SDS011;55682;51.114;5.882;2023-02-18T05:09:13;1.72;;;1.71;;
68700;SDS011;55682;51.114;5.882;2023-02-18T05:11:40;1.76;;;1.74;;
68700;SDS011;55682;51.114;5.882;2023-02-18T05:14:06;2.02;;;2.00;;
68700;SDS011;55682;51.114;5.882;2023-02-18T05:16:32;1.97;;;1.94;;
68700;SDS011;55682;51.114;5.882;2023-02-18T05:18:57;2.07;;;2.03;;
68700;SDS011;55682;51.114;5.882;2023-02-18T05:21:23;1.99;;;1.97;;
68700;SDS011;55682;51.114;5.882;2023-02-18T05:23:48;2.25;;;2.24;;
68700;SDS011;55682;51.114;5.882;2023-02-18T05:26:14;2.07;;;2.05;;
68700;SDS011;55682;51.114;5.882;2023-02-18T05:28:39;2.31;;;2.27;;
68700;SDS011;55682;51.114;5.882;2023-02-18T05:31:05;2.53;;;2.48;;
68700;SDS011;55682;51.114;5.882;2023-02-18T05:33:31;2.27;;;2.25;;
68700;SDS011;55682;51.114;5.882;2023-02-18T05:35:56;2.21;;;2.18;;
68700;SDS011;55682;51.114;5.882;2023-02-18T05:38:22;2.20;;;2.17;;
68700;SDS011;55682;51.114;5.882;2023-02-18T05:40:48;2.27;;;2.24;;
68700;SDS011;55682;51.114;5.882;2023-02-18T05:43:13;2.21;;;2.17;;
68700;SDS011;55682;51.114;5.882;2023-02-18T05:45:40;2.07;;;2.03;;
68700;SDS011;55682;51.114;5.882;2023-02-18T05:48:05;2.23;;;2.18;;
68700;SDS011;55682;51.114;5.882;2023-02-18T05:50:31;2.19;;;2.14;;
68700;SDS011;55682;51.114;5.882;2023-02-18T05:52:58;1.94;;;1.90;;
68700;SDS011;55682;51.114;5.882;2023-02-18T05:55:23;2.09;;;2.04;;
68700;SDS011;55682;51.114;5.882;2023-02-18T05:57:49;1.74;;;1.70;;
68700;SDS011;55682;51.114;5.882;2023-02-18T06:00:15;1.99;;;1.95;;
68700;SDS011;55682;51.114;5.882;2023-02-18T06:02:41;1.82;;;1.79;;
68700;SDS011;55682;51.114;5.882;2023-02-18T06:05:07;1.74;;;1.72;;
68700;SDS011;55682;51.114;5.882;2023-02-18T06:07:34;1.87;;;1.83;;
68700;SDS011;55682;51.114;5.882;2023-02-18T06:10:00;2.14;;;2.10;;
68700;SDS011;55682;51.114;5.882;2023-02-18T06:12:26;1.74;;;1.73;;
68700;SDS011;55682;51.114;5.882;2023-02-18T06:14:52;1.53;;;1.51;;
68700;SDS011;55682;51.114;5.882;2023-02-18T06:17:17;1.75;;;1.70;;
68700;SDS011;55682;51.114;5.882;2023-02-18T06:19:43;1.54;;;1.53;;
68700;SDS011;55682;51.114;5.882;2023-02-18T06:22:10;1.43;;;1.43;;
68700;SDS011;55682;51.114;5.882;2023-02-18T06:24:36;1.52;;;1.52;;
68700;SDS011;55682;51.114;5.882;2023-02-18T06:27:02;1.31;;;1.31;;
68700;SDS011;55682;51.114;5.882;2023-02-18T06:29:28;1.33;;;1.33;;
68700;SDS011;55682;51.114;5.882;2023-02-18T06:31:55;1.46;;;1.44;;
68700;SDS011;55682;51.114;5.882;2023-02-18T06:34:22;1.67;;;1.64;;
68700;SDS011;55682;51.114;5.882;2023-02-18T06:36:47;1.47;;;1.46;;
68700;SDS011;55682;51.114;5.882;2023-02-18T06:39:13;1.40;;;1.39;;
68700;SDS011;55682;51.114;5.882;2023-02-18T06:41:39;1.66;;;1.65;;
68700;SDS011;55682;51.114;5.882;2023-02-18T06:44:05;1.43;;;1.42;;
68700;SDS011;55682;51.114;5.882;2023-02-18T06:46:31;1.74;;;1.74;;
68700;SDS011;55682;51.114;5.882;2023-02-18T06:48:57;1.69;;;1.69;;
68700;SDS011;55682;51.114;5.882;2023-02-18T06:51:23;1.77;;;1.76;;
68700;SDS011;55682;51.114;5.882;2023-02-18T06:53:49;1.81;;;1.81;;
68700;SDS011;55682;51.114;5.882;2023-02-18T06:56:14;1.97;;;1.97;;
68700;SDS011;55682;51.114;5.882;2023-02-18T06:58:40;1.97;;;1.97;;
68700;SDS011;55682;51.114;5.882;2023-02-18T07:01:05;1.88;;;1.86;;
68700;SDS011;55682;51.114;5.882;2023-02-18T07:03:31;1.69;;;1.65;;
68700;SDS011;55682;51.114;5.882;2023-02-18T07:05:57;1.54;;;1.52;;
68700;SDS011;55682;51.114;5.882;2023-02-18T07:08:23;1.30;;;1.28;;
68700;SDS011;55682;51.114;5.882;2023-02-18T07:10:48;1.00;;;0.98;;
68700;SDS011;55682;51.114;5.882;2023-02-18T07:13:14;1.12;;;1.12;;
68700;SDS011;55682;51.114;5.882;2023-02-18T07:15:40;1.18;;;1.18;;
68700;SDS011;55682;51.114;5.882;2023-02-18T07:18:06;1.19;;;1.19;;
68700;SDS011;55682;51.114;5.882;2023-02-18T07:20:31;1.20;;;1.20;;
68700;SDS011;55682;51.114;5.882;2023-02-18T07:22:57;1.22;;;1.22;;
68700;SDS011;55682;51.114;5.882;2023-02-18T07:25:23;1.08;;;1.08;;
68700;SDS011;55682;51.114;5.882;2023-02-18T07:27:49;1.24;;;1.24;;
68700;SDS011;55682;51.114;5.882;2023-02-18T07:30:15;1.24;;;1.24;;
68700;SDS011;55682;51.114;5.882;2023-02-18T07:32:41;1.27;;;1.27;;
68700;SDS011;55682;51.114;5.882;2023-02-18T07:35:07;1.42;;;1.41;;
68700;SDS011;55682;51.114;5.882;2023-02-18T07:37:34;1.42;;;1.39;;
68700;SDS011;55682;51.114;5.882;2023-02-18T07:40:00;1.52;;;1.49;;
68700;SDS011;55682;51.114;5.882;2023-02-18T07:42:26;1.59;;;1.56;;
68700;SDS011;55682;51.114;5.882;2023-02-18T07:44:51;1.60;;;1.54;;
68700;SDS011;55682;51.114;5.882;2023-02-18T07:47:17;1.62;;;1.54;;
68700;SDS011;55682;51.114;5.882;2023-02-18T07:49:44;1.86;;;1.78;;
68700;SDS011;55682;51.114;5.882;2023-02-18T07:52:10;1.53;;;1.46;;
68700;SDS011;55682;51.114;5.882;2023-02-18T07:54:37;1.88;;;1.76;;
68700;SDS011;55682;51.114;5.882;2023-02-18T07:57:02;1.99;;;1.87;;
68700;SDS011;55682;51.114;5.882;2023-02-18T07:59:28;2.00;;;1.90;;
68700;SDS011;55682;51.114;5.882;2023-02-18T08:01:54;1.94;;;1.84;;
68700;SDS011;55682;51.114;5.882;2023-02-18T08:04:19;2.00;;;1.86;;
68700;SDS011;55682;51.114;5.882;2023-02-18T08:06:46;2.33;;;2.11;;
68700;SDS011;55682;51.114;5.882;2023-02-18T08:09:14;2.24;;;2.00;;
68700;SDS011;55682;51.114;5.882;2023-02-18T08:11:42;2.29;;;2.06;;
68700;SDS011;55682;51.114;5.882;2023-02-18T08:14:07;2.32;;;2.08;;
68700;SDS011;55682;51.114;5.882;2023-02-18T08:16:33;2.22;;;1.96;;
68700;SDS011;55682;51.114;5.882;2023-02-18T08:19:00;2.57;;;2.28;;
68700;SDS011;55682;51.114;5.882;2023-02-18T08:21:27;2.40;;;2.13;;
68700;SDS011;55682;51.114;5.882;2023-02-18T08:23:53;2.47;;;2.15;;
68700;SDS011;55682;51.114;5.882;2023-02-18T08:26:19;2.36;;;2.06;;
68700;SDS011;55682;51.114;5.882;2023-02-18T08:28:46;2.39;;;2.09;;
68700;SDS011;55682;51.114;5.882;2023-02-18T08:31:19;2.59;;;2.21;;
68700;SDS011;55682;51.114;5.882;2023-02-18T08:33:49;2.97;;;2.48;;
68700;SDS011;55682;51.114;5.882;2023-02-18T08:36:15;2.99;;;2.52;;
68700;SDS011;55682;51.114;5.882;2023-02-18T08:38:41;3.04;;;2.56;;
68700;SDS011;55682;51.114;5.882;2023-02-18T08:41:07;2.73;;;2.30;;
68700;SDS011;55682;51.114;5.882;2023-02-18T08:43:33;3.13;;;2.64;;
68700;SDS011;55682;51.114;5.882;2023-02-18T08:46:00;2.91;;;2.46;;
68700;SDS011;55682;51.114;5.882;2023-02-18T08:48:27;2.98;;;2.56;;
68700;SDS011;55682;51.114;5.882;2023-02-18T08:50:53;2.86;;;2.46;;
68700;SDS011;55682;51.114;5.882;2023-02-18T08:53:19;3.01;;;2.61;;
68700;SDS011;55682;51.114;5.882;2023-02-18T08:55:46;2.92;;;2.51;;
68700;SDS011;55682;51.114;5.882;2023-02-18T08:58:11;3.01;;;2.53;;
68700;SDS011;55682;51.114;5.882;2023-02-18T09:00:38;3.00;;;2.50;;
68700;SDS011;55682;51.114;5.882;2023-02-18T09:03:05;3.51;;;2.92;;
68700;SDS011;55682;51.114;5.882;2023-02-18T09:05:32;3.03;;;2.46;;
68700;SDS011;55682;51.114;5.882;2023-02-18T09:07:57;3.09;;;2.56;;
68700;SDS011;55682;51.114;5.882;2023-02-18T09:10:23;2.94;;;2.48;;
68700;SDS011;55682;51.114;5.882;2023-02-18T09:12:49;2.86;;;2.42;;
68700;SDS011;55682;51.114;5.882;2023-02-18T09:15:15;3.08;;;2.68;;
68700;SDS011;55682;51.114;5.882;2023-02-18T09:17:40;2.74;;;2.40;;
68700;SDS011;55682;51.114;5.882;2023-02-18T09:20:06;2.92;;;2.54;;
68700;SDS011;55682;51.114;5.882;2023-02-18T09:22:32;8.75;;;7.70;;
68700;SDS011;55682;51.114;5.882;2023-02-18T09:24:58;8.60;;;7.90;;
68700;SDS011;55682;51.114;5.882;2023-02-18T09:27:24;2.93;;;2.67;;
68700;SDS011;55682;51.114;5.882;2023-02-18T09:29:49;2.60;;;2.36;;
68700;SDS011;55682;51.114;5.882;2023-02-18T09:32:15;2.63;;;2.33;;
68700;SDS011;55682;51.114;5.882;2023-02-18T09:34:42;2.74;;;2.43;;
68700;SDS011;55682;51.114;5.882;2023-02-18T09:37:08;2.96;;;2.62;;
68700;SDS011;55682;51.114;5.882;2023-02-18T09:39:34;3.15;;;2.75;;
68700;SDS011;55682;51.114;5.882;2023-02-18T09:42:01;3.22;;;2.76;;
68700;SDS011;55682;51.114;5.882;2023-02-18T09:44:38;3.35;;;2.86;;
68700;SDS011;55682;51.114;5.882;2023-02-18T09:47:39;3.49;;;2.95;;
68700;SDS011;55682;51.114;5.882;2023-02-18T09:52:37;3.39;;;2.81;;
68700;SDS011;55682;51.114;5.882;2023-02-18T09:55:17;3.47;;;2.95;;
68700;SDS011;55682;51.114;5.882;2023-02-18T09:57:47;3.27;;;2.76;;
68700;SDS011;55682;51.114;5.882;2023-02-18T10:02:52;3.25;;;2.69;;
68700;SDS011;55682;51.114;5.882;2023-02-18T10:05:20;2.87;;;2.41;;
68700;SDS011;55682;51.114;5.882;2023-02-18T10:07:48;2.89;;;2.47;;
68700;SDS011;55682;51.114;5.882;2023-02-18T10:10:20;2.65;;;2.29;;
68700;SDS011;55682;51.114;5.882;2023-02-18T10:13:03;2.95;;;2.56;;
68700;SDS011;55682;51.114;5.882;2023-02-18T10:15:29;2.84;;;2.48;;
68700;SDS011;55682;51.114;5.882;2023-02-18T10:17:57;3.08;;;2.74;;
68700;SDS011;55682;51.114;5.882;2023-02-18T10:20:25;2.78;;;2.54;;
68700;SDS011;55682;51.114;5.882;2023-02-18T10:22:54;3.03;;;2.79;;
68700;SDS011;55682;51.114;5.882;2023-02-18T10:25:25;2.83;;;2.58;;
68700;SDS011;55682;51.114;5.882;2023-02-18T10:27:51;3.02;;;2.81;;
68700;SDS011;55682;51.114;5.882;2023-02-18T10:30:32;2.94;;;2.72;;
68700;SDS011;55682;51.114;5.882;2023-02-18T10:33:10;3.05;;;2.85;;
68700;SDS011;55682;51.114;5.882;2023-02-18T10:36:08;2.71;;;2.58;;
68700;SDS011;55682;51.114;5.882;2023-02-18T10:38:52;2.61;;;2.46;;
68700;SDS011;55682;51.114;5.882;2023-02-18T10:47:13;2.58;;;2.38;;
68700;SDS011;55682;51.114;5.882;2023-02-18T10:49:58;2.38;;;2.21;;
68700;SDS011;55682;51.114;5.882;2023-02-18T10:52:29;2.17;;;2.05;;
68700;SDS011;55682;51.114;5.882;2023-02-18T10:55:06;2.18;;;2.08;;
68700;SDS011;55682;51.114;5.882;2023-02-18T10:57:44;2.14;;;2.10;;
68700;SDS011;55682;51.114;5.882;2023-02-18T11:00:19;2.08;;;2.06;;
68700;SDS011;55682;51.114;5.882;2023-02-18T11:03:10;1.98;;;1.98;;
68700;SDS011;55682;51.114;5.882;2023-02-18T11:05:39;2.07;;;2.06;;
68700;SDS011;55682;51.114;5.882;2023-02-18T11:08:10;1.87;;;1.87;;
68700;SDS011;55682;51.114;5.882;2023-02-18T11:10:48;1.93;;;1.90;;
68700;SDS011;55682;51.114;5.882;2023-02-18T11:13:15;2.16;;;2.12;;
68700;SDS011;55682;51.114;5.882;2023-02-18T11:15:53;2.10;;;2.03;;
68700;SDS011;55682;51.114;5.882;2023-02-18T11:18:29;2.04;;;1.95;;
68700;SDS011;55682;51.114;5.882;2023-02-18T11:21:43;2.20;;;2.11;;
68700;SDS011;55682;51.114;5.882;2023-02-18T11:23:54;2.21;;;2.16;;
68700;SDS011;55682;51.114;5.882;2023-02-18T11:26:25;2.07;;;2.02;;
68700;SDS011;55682;51.114;5.882;2023-02-18T11:29:05;2.28;;;2.28;;
68700;SDS011;55682;51.114;5.882;2023-02-18T11:31:43;1.98;;;1.98;;
68700;SDS011;55682;51.114;5.882;2023-02-18T11:34:13;2.50;;;2.50;;
68700;SDS011;55682;51.114;5.882;2023-02-18T11:36:44;2.29;;;2.27;;
68700;SDS011;55682;51.114;5.882;2023-02-18T11:39:32;2.49;;;2.43;;
68700;SDS011;55682;51.114;5.882;2023-02-18T11:41:58;2.38;;;2.32;;
68700;SDS011;55682;51.114;5.882;2023-02-18T11:44:38;2.37;;;2.36;;
68700;SDS011;55682;51.114;5.882;2023-02-18T11:49:38;2.75;;;2.75;;
68700;SDS011;55682;51.114;5.882;2023-02-18T11:52:18;2.54;;;2.54;;
68700;SDS011;55682;51.114;5.882;2023-02-18T11:57:31;2.72;;;2.69;;
68700;SDS011;55682;51.114;5.882;2023-02-18T12:00:00;2.91;;;2.88;;
68700;SDS011;55682;51.114;5.882;2023-02-18T12:02:35;2.87;;;2.87;;
68700;SDS011;55682;51.114;5.882;2023-02-18T12:07:40;2.71;;;2.70;;
68700;SDS011;55682;51.114;5.882;2023-02-18T12:13:09;3.05;;;3.05;;
68700;SDS011;55682;51.114;5.882;2023-02-18T12:18:20;2.93;;;2.93;;
68700;SDS011;55682;51.114;5.882;2023-02-18T12:26:47;2.68;;;2.68;;
68700;SDS011;55682;51.114;5.882;2023-02-18T12:32:07;3.02;;;3.02;;
68700;SDS011;55682;51.114;5.882;2023-02-18T12:35:00;3.05;;;3.05;;
68700;SDS011;55682;51.114;5.882;2023-02-18T12:43:08;3.33;;;3.33;;
68700;SDS011;55682;51.114;5.882;2023-02-18T12:46:18;3.17;;;3.17;;
68700;SDS011;55682;51.114;5.882;2023-02-18T13:02:54;3.66;;;3.66;;
68700;SDS011;55682;51.114;5.882;2023-02-18T13:08:35;3.66;;;3.66;;
68700;SDS011;55682;51.114;5.882;2023-02-18T13:11:16;3.62;;;3.62;;
68700;SDS011;55682;51.114;5.882;2023-02-18T13:16:33;3.61;;;3.61;;
68700;SDS011;55682;51.114;5.882;2023-02-18T13:21:55;3.75;;;3.75;;
68700;SDS011;55682;51.114;5.882;2023-02-18T13:24:28;3.47;;;3.47;;
68700;SDS011;55682;51.114;5.882;2023-02-18T13:27:13;3.40;;;3.40;;
68700;SDS011;55682;51.114;5.882;2023-02-18T13:30:06;3.72;;;3.72;;
68700;SDS011;55682;51.114;5.882;2023-02-18T13:35:43;3.67;;;3.67;;
68700;SDS011;55682;51.114;5.882;2023-02-18T13:41:02;3.63;;;3.63;;
68700;SDS011;55682;51.114;5.882;2023-02-18T13:43:30;3.83;;;3.83;;
68700;SDS011;55682;51.114;5.882;2023-02-18T13:48:33;4.18;;;4.18;;
68700;SDS011;55682;51.114;5.882;2023-02-18T13:51:10;3.76;;;3.76;;
68700;SDS011;55682;51.114;5.882;2023-02-18T13:53:42;3.65;;;3.65;;
68700;SDS011;55682;51.114;5.882;2023-02-18T13:56:20;3.64;;;3.63;;
68700;SDS011;55682;51.114;5.882;2023-02-18T13:58:59;3.81;;;3.81;;
68700;SDS011;55682;51.114;5.882;2023-02-18T14:01:45;3.57;;;3.54;;
68700;SDS011;55682;51.114;5.882;2023-02-18T14:07:31;3.90;;;3.89;;
68700;SDS011;55682;51.114;5.882;2023-02-18T14:28:38;4.14;;;4.14;;
68700;SDS011;55682;51.114;5.882;2023-02-18T14:34:44;3.95;;;3.95;;
68700;SDS011;55682;51.114;5.882;2023-02-18T14:39:56;3.78;;;3.78;;
68700;SDS011;55682;51.114;5.882;2023-02-18T14:42:37;3.57;;;3.57;;
68700;SDS011;55682;51.114;5.882;2023-02-18T14:45:31;3.63;;;3.63;;
68700;SDS011;55682;51.114;5.882;2023-02-18T14:50:40;3.53;;;3.52;;
68700;SDS011;55682;51.114;5.882;2023-02-18T14:53:22;3.12;;;3.12;;
68700;SDS011;55682;51.114;5.882;2023-02-18T14:56:01;3.17;;;3.17;;
68700;SDS011;55682;51.114;5.882;2023-02-18T14:58:43;3.84;;;3.84;;
68700;SDS011;55682;51.114;5.882;2023-02-18T15:03:45;2.74;;;2.74;;
68700;SDS011;55682;51.114;5.882;2023-02-18T15:06:27;3.19;;;3.19;;
68700;SDS011;55682;51.114;5.882;2023-02-18T15:08:58;2.86;;;2.86;;
68700;SDS011;55682;51.114;5.882;2023-02-18T15:11:35;3.07;;;3.07;;
68700;SDS011;55682;51.114;5.882;2023-02-18T15:14:09;3.12;;;3.12;;
68700;SDS011;55682;51.114;5.882;2023-02-18T15:16:47;2.89;;;2.89;;
68700;SDS011;55682;51.114;5.882;2023-02-18T15:19:14;3.14;;;3.14;;
68700;SDS011;55682;51.114;5.882;2023-02-18T15:21:45;2.85;;;2.85;;
68700;SDS011;55682;51.114;5.882;2023-02-18T15:24:22;3.04;;;3.04;;
68700;SDS011;55682;51.114;5.882;2023-02-18T15:27:02;2.91;;;2.91;;
68700;SDS011;55682;51.114;5.882;2023-02-18T15:29:37;3.20;;;3.20;;
68700;SDS011;55682;51.114;5.882;2023-02-18T15:32:14;2.78;;;2.78;;
68700;SDS011;55682;51.114;5.882;2023-02-18T15:34:48;2.84;;;2.84;;
68700;SDS011;55682;51.114;5.882;2023-02-18T15:37:20;3.14;;;3.14;;
68700;SDS011;55682;51.114;5.882;2023-02-18T15:39:46;2.94;;;2.94;;
68700;SDS011;55682;51.114;5.882;2023-02-18T15:42:18;2.90;;;2.90;;
68700;SDS011;55682;51.114;5.882;2023-02-18T15:44:57;2.98;;;2.98;;
68700;SDS011;55682;51.114;5.882;2023-02-18T15:47:29;3.60;;;3.60;;
68700;SDS011;55682;51.114;5.882;2023-02-18T15:49:57;3.61;;;3.61;;
68700;SDS011;55682;51.114;5.882;2023-02-18T15:52:27;3.55;;;3.55;;
68700;SDS011;55682;51.114;5.882;2023-02-18T15:54:56;3.39;;;3.39;;
68700;SDS011;55682;51.114;5.882;2023-02-18T15:57:28;3.20;;;3.19;;
68700;SDS011;55682;51.114;5.882;2023-02-18T16:03:04;3.37;;;3.37;;
68700;SDS011;55682;51.114;5.882;2023-02-18T16:05:38;3.16;;;3.16;;
68700;SDS011;55682;51.114;5.882;2023-02-18T16:08:15;3.27;;;3.27;;
68700;SDS011;55682;51.114;5.882;2023-02-18T16:10:42;3.21;;;3.21;;
68700;SDS011;55682;51.114;5.882;2023-02-18T16:13:14;3.38;;;3.38;;
68700;SDS011;55682;51.114;5.882;2023-02-18T16:15:43;3.27;;;3.27;;
68700;SDS011;55682;51.114;5.882;2023-02-18T16:20:57;3.03;;;3.03;;
68700;SDS011;55682;51.114;5.882;2023-02-18T16:23:54;2.96;;;2.96;;
68700;SDS011;55682;51.114;5.882;2023-02-18T16:31:38;3.07;;;3.07;;
68700;SDS011;55682;51.114;5.882;2023-02-18T16:34:03;3.09;;;3.09;;
68700;SDS011;55682;51.114;5.882;2023-02-18T16:36:29;3.12;;;3.12;;
68700;SDS011;55682;51.114;5.882;2023-02-18T16:38:55;3.19;;;3.19;;
68700;SDS011;55682;51.114;5.882;2023-02-18T16:41:23;2.84;;;2.82;;
68700;SDS011;55682;51.114;5.882;2023-02-18T16:43:49;3.56;;;3.53;;
68700;SDS011;55682;51.114;5.882;2023-02-18T16:46:18;3.35;;;3.35;;
68700;SDS011;55682;51.114;5.882;2023-02-18T16:48:50;2.95;;;2.95;;
68700;SDS011;55682;51.114;5.882;2023-02-18T16:51:22;3.39;;;3.39;;
68700;SDS011;55682;51.114;5.882;2023-02-18T16:53:53;3.41;;;3.41;;
68700;SDS011;55682;51.114;5.882;2023-02-18T16:56:20;3.25;;;3.25;;
68700;SDS011;55682;51.114;5.882;2023-02-18T16:58:49;3.14;;;3.14;;
68700;SDS011;55682;51.114;5.882;2023-02-18T17:04:00;3.92;;;3.92;;
68700;SDS011;55682;51.114;5.882;2023-02-18T17:06:27;4.15;;;4.15;;
68700;SDS011;55682;51.114;5.882;2023-02-18T17:08:53;4.48;;;4.48;;
68700;SDS011;55682;51.114;5.882;2023-02-18T17:11:22;4.26;;;4.26;;
68700;SDS011;55682;51.114;5.882;2023-02-18T17:13:59;4.29;;;4.29;;
68700;SDS011;55682;51.114;5.882;2023-02-18T17:16:29;4.69;;;4.69;;
68700;SDS011;55682;51.114;5.882;2023-02-18T17:18:55;4.31;;;4.31;;
68700;SDS011;55682;51.114;5.882;2023-02-18T17:21:22;4.13;;;4.13;;
68700;SDS011;55682;51.114;5.882;2023-02-18T17:23:49;3.99;;;3.99;;
68700;SDS011;55682;51.114;5.882;2023-02-18T17:26:26;4.26;;;4.26;;
68700;SDS011;55682;51.114;5.882;2023-02-18T17:28:54;4.41;;;4.41;;
68700;SDS011;55682;51.114;5.882;2023-02-18T17:31:22;4.56;;;4.56;;
68700;SDS011;55682;51.114;5.882;2023-02-18T17:33:51;4.25;;;4.25;;